createdAt,value
2023-05-10T00:01:59.515Z,11.32
2023-05-10T00:05:02.905Z,11.29
2023-05-10T00:08:05.759Z,11.21
2023-05-10T00:11:08.712Z,11.17
2023-05-10T00:14:11.359Z,11.12
2023-05-10T00:17:14.331Z,11.06
2023-05-10T00:20:17.274Z,10.98
2023-05-10T00:23:20.505Z,10.99
2023-05-10T00:26:23.123Z,10.98
2023-05-10T00:29:26.888Z,10.93
2023-05-10T00:32:29.609Z,10.92
2023-05-10T00:35:32.648Z,10.80
2023-05-10T00:38:35.620Z,10.77
2023-05-10T00:41:39.217Z,10.75
2023-05-10T00:44:42.277Z,10.74
2023-05-10T00:47:46.392Z,10.70
2023-05-10T00:50:49.135Z,10.71
2023-05-10T00:53:52.519Z,10.69
2023-05-10T00:56:55.429Z,10.58
2023-05-10T00:59:59.203Z,10.31
2023-05-10T01:03:02.384Z,10.17
2023-05-10T01:06:05.870Z,10.15
2023-05-10T01:09:08.720Z,10.25
2023-05-10T01:12:11.887Z,10.17
2023-05-10T01:15:16.426Z,10.26
2023-05-10T01:18:22.754Z,10.22
2023-05-10T01:21:49.498Z,10.18
2023-05-10T01:25:01.736Z,10.00
2023-05-10T01:28:18.470Z,9.83
2023-05-10T01:31:52.334Z,9.79
2023-05-10T01:35:02.190Z,9.84
2023-05-10T01:38:20.125Z,9.77
2023-05-10T01:41:46.325Z,9.78
2023-05-10T01:45:13.804Z,9.67
2023-05-10T01:48:18.877Z,9.63
2023-05-10T01:51:26.223Z,9.69
2023-05-10T01:54:30.189Z,9.70
2023-05-10T01:57:43.327Z,9.57
2023-05-10T02:00:47.308Z,9.54
2023-05-10T02:03:52.481Z,9.42
2023-05-10T02:06:56.224Z,9.28
2023-05-10T02:09:59.984Z,9.36
2023-05-10T02:13:04.585Z,9.24
2023-05-10T02:16:08.582Z,9.21
2023-05-10T02:19:13.291Z,9.11
2023-05-10T02:22:17.686Z,9.03
2023-05-10T02:25:22.376Z,9.05
2023-05-10T02:28:26.113Z,9.08
2023-05-10T02:31:29.346Z,9.09
2023-05-10T02:34:32.982Z,9.20
2023-05-10T02:37:38.485Z,9.18
2023-05-10T02:40:43.532Z,9.11
2023-05-10T02:43:48.201Z,9.22
2023-05-10T02:46:51.128Z,9.24
2023-05-10T02:49:54.596Z,9.16
2023-05-10T02:53:02.724Z,9.19
2023-05-10T02:56:14.590Z,9.07
2023-05-10T02:59:17.334Z,8.91
2023-05-10T03:02:21.556Z,8.76
2023-05-10T03:05:24.478Z,8.65
2023-05-10T03:08:30.362Z,8.67
2023-05-10T03:11:49.680Z,8.63
2023-05-10T03:15:08.431Z,8.50
2023-05-10T03:18:16.716Z,8.57
2023-05-10T03:21:21.627Z,8.52
2023-05-10T03:24:28.476Z,8.56
2023-05-10T03:27:33.344Z,8.60
2023-05-10T03:30:37.689Z,8.66
2023-05-10T03:33:52.151Z,8.62
2023-05-10T03:36:56.774Z,8.66
2023-05-10T03:40:00.561Z,8.70
2023-05-10T03:43:03.919Z,8.83
2023-05-10T03:46:07.277Z,8.90
2023-05-10T03:49:10.237Z,8.77
2023-05-10T03:52:13.377Z,9.00
2023-05-10T03:55:17.246Z,8.95
2023-05-10T03:58:20.384Z,9.19
2023-05-10T04:01:23.245Z,9.28
2023-05-10T04:04:26.245Z,9.26
2023-05-10T04:07:28.869Z,9.37
2023-05-10T04:10:32.508Z,9.28
2023-05-10T04:13:35.714Z,9.32
2023-05-10T04:16:38.733Z,9.33
2023-05-10T04:19:41.394Z,9.59
2023-05-10T04:22:44.371Z,9.55
2023-05-10T04:25:47.101Z,9.84
2023-05-10T04:28:50.018Z,10.02
2023-05-10T04:31:52.611Z,10.09
2023-05-10T04:34:55.573Z,10.29
2023-05-10T04:37:58.136Z,10.30
2023-05-10T04:41:09.061Z,10.33
2023-05-10T04:44:11.794Z,10.66
2023-05-10T04:47:14.685Z,10.71
2023-05-10T04:50:18.639Z,11.02
2023-05-10T04:53:22.136Z,11.13
2023-05-10T04:56:24.769Z,11.57
2023-05-10T04:59:27.752Z,11.85
2023-05-10T05:02:30.686Z,11.83
2023-05-10T05:05:33.709Z,11.89
2023-05-10T05:08:36.384Z,12.03
2023-05-10T05:11:39.579Z,12.10
2023-05-10T05:14:42.381Z,12.23
2023-05-10T05:17:45.699Z,12.32
2023-05-10T05:20:48.450Z,12.53
2023-05-10T05:23:51.427Z,12.52
2023-05-10T05:26:54.065Z,12.82
2023-05-10T05:29:58.327Z,13.00
2023-05-10T05:33:00.970Z,12.78
2023-05-10T05:36:05.641Z,13.09
2023-05-10T05:39:08.442Z,12.90
2023-05-10T05:42:12.357Z,12.90
2023-05-10T05:45:18.722Z,13.10
2023-05-10T05:48:22.199Z,12.92
2023-05-10T05:51:24.912Z,13.09
2023-05-10T05:54:28.803Z,13.19
2023-05-10T05:57:31.609Z,13.36
2023-05-10T06:00:34.938Z,13.18
2023-05-10T06:03:37.978Z,13.67
2023-05-10T06:06:40.697Z,13.90
2023-05-10T06:09:43.693Z,14.00
2023-05-10T06:12:46.361Z,14.14
2023-05-10T06:15:49.434Z,14.32
2023-05-10T06:18:52.263Z,14.42
2023-05-10T06:21:55.100Z,14.83
2023-05-10T06:24:57.788Z,14.91
2023-05-10T06:28:01.003Z,14.81
2023-05-10T06:31:03.664Z,14.38
2023-05-10T06:34:09.025Z,14.76
2023-05-10T06:37:11.824Z,14.93
2023-05-10T06:40:14.863Z,14.91
2023-05-10T06:43:17.756Z,15.17
2023-05-10T06:46:20.660Z,15.21
2023-05-10T06:49:23.335Z,15.01
2023-05-10T06:52:26.353Z,15.23
2023-05-10T06:55:50.416Z,15.15
2023-05-10T06:58:53.769Z,15.41
2023-05-10T07:01:56.478Z,15.60
2023-05-10T07:05:02.712Z,15.09
2023-05-10T07:08:06.012Z,15.35
2023-05-10T07:11:08.933Z,15.58
2023-05-10T07:14:11.554Z,15.57
2023-05-10T07:17:14.549Z,15.62
2023-05-10T07:20:17.331Z,15.99
2023-05-10T07:23:20.465Z,16.05
2023-05-10T07:26:23.139Z,15.57
2023-05-10T07:29:26.477Z,15.86
2023-05-10T07:32:29.234Z,16.15
2023-05-10T07:35:32.274Z,15.63
2023-05-10T07:38:35.091Z,16.27
2023-05-10T07:41:38.694Z,16.44
2023-05-10T07:44:41.315Z,16.73
2023-05-10T07:47:44.325Z,16.83
2023-05-10T07:50:47.212Z,16.41
2023-05-10T07:53:50.198Z,17.03
2023-05-10T07:56:52.988Z,16.82
2023-05-10T07:59:55.941Z,17.13
2023-05-10T08:02:58.748Z,17.19
2023-05-10T08:06:01.790Z,17.00
2023-05-10T08:09:04.461Z,16.75
2023-05-10T08:12:07.330Z,16.77
2023-05-10T08:15:10.747Z,17.10
2023-05-10T08:18:13.766Z,17.28
2023-05-10T08:21:16.786Z,17.70
2023-05-10T08:24:19.757Z,18.20
2023-05-10T08:27:22.903Z,18.38
2023-05-10T08:30:25.793Z,18.20
2023-05-10T08:33:28.388Z,18.38
2023-05-10T08:36:31.275Z,18.46
2023-05-10T08:39:36.878Z,18.24
2023-05-10T08:42:44.428Z,18.32
2023-05-10T08:45:48.094Z,17.84
2023-05-10T08:48:53.149Z,17.42
2023-05-10T08:51:57.022Z,18.20
2023-05-10T08:55:00.048Z,18.95
2023-05-10T08:58:02.919Z,18.94
2023-05-10T09:01:09.863Z,18.39
2023-05-10T09:04:14.399Z,18.27
2023-05-10T09:07:18.231Z,18.09
2023-05-10T09:10:22.759Z,18.45
2023-05-10T09:13:26.180Z,19.61
2023-05-10T09:16:29.109Z,19.85
2023-05-10T09:19:32.039Z,19.74
2023-05-10T09:22:36.071Z,19.65
2023-05-10T09:25:39.772Z,20.00
2023-05-10T09:28:55.562Z,19.75
2023-05-10T09:31:58.488Z,19.62
2023-05-10T09:35:14.381Z,20.15
2023-05-10T09:38:17.428Z,19.68
2023-05-10T09:41:22.506Z,20.25
2023-05-10T09:44:27.098Z,19.84
2023-05-10T09:47:29.835Z,19.76
2023-05-10T09:50:32.797Z,19.51
2023-05-10T09:53:35.408Z,19.41
2023-05-10T09:56:40.824Z,19.30
2023-05-10T09:59:46.324Z,19.33
2023-05-10T10:03:00.278Z,19.77
2023-05-10T10:06:03.439Z,19.58
2023-05-10T10:09:07.548Z,19.50
2023-05-10T10:12:10.639Z,19.83
2023-05-10T10:15:15.898Z,19.30
2023-05-10T10:18:24.601Z,18.87
2023-05-10T10:21:27.906Z,19.22
2023-05-10T10:24:30.893Z,19.37
2023-05-10T10:27:52.070Z,18.88
2023-05-10T10:30:57.495Z,19.75
2023-05-10T10:34:30.614Z,20.68
2023-05-10T10:37:46.386Z,20.35
2023-05-10T10:40:49.120Z,19.92
2023-05-10T10:44:27.420Z,20.54
2023-05-10T10:47:34.090Z,19.79
2023-05-10T10:50:46.002Z,19.97
2023-05-10T10:53:49.308Z,20.49
2023-05-10T10:57:11.704Z,20.89
2023-05-10T11:00:23.130Z,21.12
2023-05-10T11:03:26.555Z,20.75
2023-05-10T11:06:33.583Z,20.77
2023-05-10T11:09:41.124Z,20.84
2023-05-10T11:13:03.633Z,21.51
2023-05-10T11:16:26.472Z,21.68
2023-05-10T11:19:29.450Z,21.55
2023-05-10T11:22:51.828Z,21.87
2023-05-10T11:25:55.529Z,22.19
2023-05-10T11:29:01.701Z,22.58
2023-05-10T11:32:09.226Z,22.26
2023-05-10T11:35:12.829Z,22.64
2023-05-10T11:38:15.922Z,21.77
2023-05-10T11:41:22.620Z,20.94
2023-05-10T11:44:31.116Z,20.79
2023-05-10T11:47:34.161Z,21.30
2023-05-10T11:50:36.902Z,22.08
2023-05-10T11:53:40.077Z,21.56
2023-05-10T11:56:42.779Z,21.66
2023-05-10T11:59:46.768Z,21.46
2023-05-10T12:02:50.133Z,20.69
2023-05-10T12:05:53.465Z,21.04
2023-05-10T12:08:56.266Z,20.80
2023-05-10T12:11:59.606Z,21.66
2023-05-10T12:15:04.400Z,22.09
2023-05-10T12:18:11.453Z,20.80
2023-05-10T12:21:14.381Z,21.52
2023-05-10T12:24:19.046Z,21.96
2023-05-10T12:27:21.748Z,22.84
2023-05-10T12:30:30.073Z,22.40
2023-05-10T12:33:45.707Z,22.43
2023-05-10T12:36:53.406Z,21.92
2023-05-10T12:39:56.422Z,22.45
2023-05-10T12:42:59.781Z,22.48
2023-05-10T12:46:17.386Z,23.25
2023-05-10T12:49:20.706Z,23.35
2023-05-10T12:52:23.555Z,23.36
2023-05-10T12:55:26.555Z,22.18
2023-05-10T12:58:35.669Z,22.17
2023-05-10T13:01:39.599Z,22.53
2023-05-10T13:04:42.992Z,23.22
2023-05-10T13:07:46.295Z,23.09
2023-05-10T13:10:49.493Z,22.71
2023-05-10T13:13:52.710Z,22.85
2023-05-10T13:16:55.387Z,21.77
2023-05-10T13:19:58.404Z,21.60
2023-05-10T13:23:01.286Z,21.56
2023-05-10T13:26:04.347Z,21.92
2023-05-10T13:29:07.033Z,22.33
2023-05-10T13:32:10.046Z,22.36
2023-05-10T13:35:12.600Z,23.05
2023-05-10T13:38:15.574Z,23.31
2023-05-10T13:41:18.672Z,22.85
2023-05-10T13:44:21.690Z,22.53
2023-05-10T13:47:24.269Z,21.31
2023-05-10T13:50:28.037Z,21.71
2023-05-10T13:53:30.885Z,21.95
2023-05-10T13:56:33.946Z,22.37
2023-05-10T13:59:36.566Z,22.25
2023-05-10T14:02:39.619Z,21.95
2023-05-10T14:05:42.730Z,21.55
2023-05-10T14:08:45.800Z,21.23
2023-05-10T14:11:48.813Z,21.15
2023-05-10T14:14:51.495Z,21.17
2023-05-10T14:17:54.482Z,21.14
2023-05-10T14:20:57.476Z,21.11
2023-05-10T14:24:00.386Z,21.78
2023-05-10T14:27:03.338Z,21.84
2023-05-10T14:30:07.192Z,21.48
2023-05-10T14:33:10.014Z,21.15
2023-05-10T14:36:13.049Z,21.22
2023-05-10T14:39:15.734Z,21.10
2023-05-10T14:42:18.578Z,20.95
2023-05-10T14:45:22.124Z,20.18
2023-05-10T14:48:24.969Z,20.41
2023-05-10T14:51:27.770Z,20.59
2023-05-10T14:54:31.118Z,20.48
2023-05-10T14:57:34.435Z,20.49
2023-05-10T15:00:37.391Z,20.36
2023-05-10T15:03:40.397Z,20.27
2023-05-10T15:06:43.868Z,20.36
2023-05-10T15:09:46.488Z,20.75
2023-05-10T15:12:49.397Z,20.62
2023-05-10T15:15:52.086Z,20.71
2023-05-10T15:18:55.002Z,21.42
2023-05-10T15:21:57.718Z,21.22
2023-05-10T15:25:00.775Z,20.96
2023-05-10T15:28:03.893Z,20.79
2023-05-10T15:31:06.866Z,20.56
2023-05-10T15:34:09.550Z,20.37
2023-05-10T15:37:12.600Z,20.42
2023-05-10T15:40:15.298Z,20.21
2023-05-10T15:43:18.111Z,20.28
2023-05-10T15:46:20.816Z,20.42
2023-05-10T15:49:23.758Z,20.29
2023-05-10T15:52:26.382Z,20.24
2023-05-10T15:55:29.267Z,20.18
2023-05-10T15:58:32.379Z,20.06
2023-05-10T16:01:35.270Z,20.23
2023-05-10T16:04:39.155Z,20.22
2023-05-10T16:07:42.398Z,20.57
2023-05-10T16:10:45.384Z,20.24
2023-05-10T16:13:48.034Z,20.38
2023-05-10T16:16:51.590Z,20.36
2023-05-10T16:19:54.353Z,20.25
2023-05-10T16:22:57.241Z,19.99
2023-05-10T16:25:59.924Z,19.95
2023-05-10T16:29:02.961Z,20.02
2023-05-10T16:32:05.754Z,19.84
2023-05-10T16:35:09.180Z,19.57
2023-05-10T16:38:12.126Z,19.57
2023-05-10T16:41:15.017Z,19.30
2023-05-10T16:44:19.657Z,19.13
2023-05-10T16:47:26.697Z,18.94
2023-05-10T16:50:29.609Z,18.89
2023-05-10T16:53:32.639Z,18.99
2023-05-10T16:56:35.248Z,18.81
2023-05-10T16:59:38.342Z,18.67
2023-05-10T17:02:41.214Z,18.74
2023-05-10T17:05:44.181Z,18.62
2023-05-10T17:08:46.963Z,18.42
2023-05-10T17:11:49.923Z,18.47
2023-05-10T17:14:52.437Z,18.38
2023-05-10T17:17:56.163Z,18.42
2023-05-10T17:20:58.808Z,18.22
2023-05-10T17:24:01.735Z,18.16
2023-05-10T17:27:04.510Z,18.14
2023-05-10T17:30:08.153Z,18.02
2023-05-10T17:33:10.755Z,17.96
2023-05-10T17:36:13.723Z,17.92
2023-05-10T17:39:16.315Z,17.84
2023-05-10T17:42:20.993Z,17.72
2023-05-10T17:45:23.652Z,17.62
2023-05-10T17:48:26.856Z,17.56
2023-05-10T17:51:29.739Z,17.48
2023-05-10T17:54:32.782Z,17.43
2023-05-10T17:57:38.130Z,17.31
2023-05-10T18:00:41.153Z,17.28
2023-05-10T18:03:49.450Z,17.21
2023-05-10T18:06:52.091Z,17.10
2023-05-10T18:09:55.091Z,16.99
2023-05-10T18:12:58.673Z,16.91
2023-05-10T18:16:01.566Z,16.84
2023-05-10T18:19:04.397Z,16.75
2023-05-10T18:22:10.524Z,16.73
2023-05-10T18:25:13.518Z,16.61
2023-05-10T18:28:16.458Z,16.51
2023-05-10T18:31:19.727Z,16.32
2023-05-10T18:34:22.818Z,16.32
2023-05-10T18:37:25.592Z,16.29
2023-05-10T18:40:28.952Z,16.20
2023-05-10T18:43:31.626Z,16.12
2023-05-10T18:46:35.792Z,16.09
2023-05-10T18:49:38.993Z,16.08
2023-05-10T18:52:42.661Z,16.00
2023-05-10T18:55:46.556Z,15.90
2023-05-10T18:58:49.766Z,15.75
2023-05-10T19:01:54.244Z,15.52
2023-05-10T19:04:59.701Z,15.49
2023-05-10T19:08:02.421Z,15.55
2023-05-10T19:11:05.398Z,15.34
2023-05-10T19:14:08.170Z,15.28
2023-05-10T19:17:12.623Z,15.08
2023-05-10T19:20:16.222Z,14.98
2023-05-10T19:23:19.340Z,14.88
2023-05-10T19:26:22.415Z,14.91
2023-05-10T19:29:26.513Z,14.92
2023-05-10T19:32:29.606Z,14.89
2023-05-10T19:35:32.636Z,14.92
2023-05-10T19:38:35.461Z,14.94
2023-05-10T19:41:38.489Z,14.92
2023-05-10T19:44:41.288Z,14.90
2023-05-10T19:47:44.351Z,14.82
2023-05-10T19:50:47.250Z,14.83
2023-05-10T19:53:50.445Z,14.69
2023-05-10T19:56:53.215Z,14.74
2023-05-10T19:59:56.496Z,14.69
2023-05-10T20:02:59.359Z,14.72
2023-05-10T20:06:03.021Z,14.72
2023-05-10T20:09:05.575Z,14.62
2023-05-10T20:12:08.914Z,14.65
2023-05-10T20:15:11.836Z,14.64
2023-05-10T20:18:14.975Z,14.59
2023-05-10T20:21:17.724Z,14.34
2023-05-10T20:24:20.861Z,14.41
2023-05-10T20:27:23.510Z,14.33
2023-05-10T20:30:26.873Z,14.35
2023-05-10T20:33:30.176Z,14.23
2023-05-10T20:36:33.080Z,14.30
2023-05-10T20:39:35.946Z,14.36
2023-05-10T20:42:38.810Z,14.27
2023-05-10T20:45:41.667Z,14.28
2023-05-10T20:48:44.548Z,14.33
2023-05-10T20:51:47.147Z,14.33
2023-05-10T20:54:50.013Z,14.34
2023-05-10T20:57:52.950Z,14.28
2023-05-10T21:00:55.836Z,14.21
2023-05-10T21:03:58.386Z,14.17
2023-05-10T21:07:01.327Z,14.09
2023-05-10T21:10:04.133Z,14.19
2023-05-10T21:13:07.146Z,14.12
2023-05-10T21:16:09.718Z,14.10
2023-05-10T21:19:12.707Z,14.13
2023-05-10T21:22:15.384Z,14.09
2023-05-10T21:25:18.503Z,14.11
2023-05-10T21:28:21.114Z,14.12
2023-05-10T21:31:24.037Z,14.08
2023-05-10T21:34:26.959Z,14.02
2023-05-10T21:37:29.862Z,14.06
2023-05-10T21:40:32.453Z,13.95
2023-05-10T21:43:35.359Z,13.89
2023-05-10T21:46:37.884Z,13.87
2023-05-10T21:49:40.834Z,13.86
2023-05-10T21:52:43.548Z,13.84
2023-05-10T21:55:46.595Z,13.87
2023-05-10T21:58:49.196Z,13.87
2023-05-10T22:01:52.077Z,13.84
2023-05-10T22:04:55.077Z,13.86
2023-05-10T22:07:57.723Z,13.80
2023-05-10T22:11:00.644Z,13.84
2023-05-10T22:14:03.318Z,13.87
2023-05-10T22:17:06.235Z,13.83
2023-05-10T22:20:09.585Z,13.83
2023-05-10T22:23:12.938Z,13.81
2023-05-10T22:26:15.571Z,13.72
2023-05-10T22:29:18.446Z,13.75
2023-05-10T22:32:21.041Z,13.69
2023-05-10T22:35:23.870Z,13.72
2023-05-10T22:38:26.562Z,13.72
2023-05-10T22:41:29.419Z,13.66
2023-05-10T22:44:32.062Z,13.63
2023-05-10T22:47:35.022Z,13.58
2023-05-10T22:50:37.756Z,13.33
2023-05-10T22:53:41.434Z,13.09
2023-05-10T22:56:44.285Z,12.98
2023-05-10T22:59:48.304Z,12.91
2023-05-10T23:02:51.675Z,12.77
2023-05-10T23:05:54.556Z,12.69
2023-05-10T23:08:57.196Z,12.57
2023-05-10T23:12:00.004Z,12.47
2023-05-10T23:15:02.619Z,12.37
2023-05-10T23:18:06.044Z,12.29
2023-05-10T23:21:08.744Z,12.14
2023-05-10T23:24:12.366Z,12.01
2023-05-10T23:27:15.118Z,11.92
2023-05-10T23:30:18.258Z,11.83
2023-05-10T23:33:20.963Z,11.60
2023-05-10T23:36:23.892Z,11.71
2023-05-10T23:39:26.567Z,11.64
2023-05-10T23:42:29.552Z,11.69
2023-05-10T23:45:32.366Z,11.71
2023-05-10T23:48:35.518Z,11.61
2023-05-10T23:51:38.114Z,11.63
2023-05-10T23:54:41.317Z,11.51
2023-05-10T23:57:44.124Z,11.34
